Time;durP1;ratioP1;P1;durP2;ratioP2;P2;SDS_P1;SDS_P2;PMS_P1;PMS_P2;Temp;Humidity;BMP_temperature;BMP_pressure;BME280_temperature;BME280_humidity;BME280_pressure;Samples;Min_cycle;Max_cycle;Signal;HPM_P1;HPM_P2
2022/06/07 00:00:45;;;;;;;22.63;13.82;;;11.20;99.90;;;;;;4993593;28;20054;-79
2022/06/07 00:03:12;;;;;;;29.08;15.07;;;11.20;99.90;;;;;;4961795;28;20553;-78
2022/06/07 00:05:41;;;;;;;24.85;13.82;;;11.20;99.90;;;;;;4977449;28;20053;-80
2022/06/07 00:08:07;;;;;;;24.17;14.85;;;11.30;99.90;;;;;;4992779;28;20469;-79
2022/06/07 00:10:33;;;;;;;27.42;16.27;;;11.50;99.90;;;;;;4959334;28;20395;-78
2022/06/07 00:12:59;;;;;;;30.48;16.98;;;11.30;99.90;;;;;;4944192;28;20045;-79
2022/06/07 00:15:25;;;;;;;28.75;16.75;;;11.30;99.90;;;;;;4975050;28;20394;-78
2022/06/07 00:17:51;;;;;;;28.90;17.10;;;11.30;99.90;;;;;;4991087;28;20033;-79
2022/06/07 00:20:18;;;;;;;27.10;15.95;;;11.30;99.90;;;;;;4991136;28;21066;-78
2022/06/07 00:22:46;;;;;;;31.50;17.85;;;11.30;99.90;;;;;;4961554;28;20459;-79
2022/06/07 00:25:16;;;;;;;34.10;18.38;;;11.30;99.90;;;;;;4989315;28;20101;-79
2022/06/07 00:27:42;;;;;;;34.85;19.05;;;11.30;99.90;;;;;;4991348;28;20121;-79
2022/06/07 00:30:09;;;;;;;32.17;19.70;;;11.40;99.90;;;;;;4977143;28;20041;-79
2022/06/07 00:32:36;;;;;;;31.02;19.15;;;11.30;99.90;;;;;;4976888;28;20080;-80
2022/06/07 00:35:02;;;;;;;30.92;19.10;;;11.40;99.90;;;;;;4994457;28;20044;-80
2022/06/07 00:37:28;;;;;;;37.45;19.92;;;11.40;99.90;;;;;;4993462;28;20487;-80
2022/06/07 00:39:53;;;;;;;26.52;17.98;;;11.40;99.90;;;;;;4959131;28;20052;-79
2022/06/07 00:42:19;;;;;;;34.97;19.25;;;11.40;99.90;;;;;;4974695;28;20418;-80
2022/06/07 00:44:46;;;;;;;26.95;17.95;;;11.40;99.90;;;;;;4960165;28;20037;-79
2022/06/07 00:47:24;;;;;;;26.88;18.33;;;11.40;99.90;;;;;;4992908;28;20045;-79
2022/06/07 00:50:08;;;;;;;28.70;18.83;;;11.40;99.90;;;;;;4990751;28;20042;-79
2022/06/07 00:52:35;;;;;;;25.08;17.38;;;11.50;99.90;;;;;;4990793;28;20044;-82
2022/06/07 00:55:03;;;;;;;25.65;17.55;;;11.50;99.90;;;;;;4991024;28;20065;-78
2022/06/07 00:57:29;;;;;;;27.30;17.88;;;11.50;99.90;;;;;;4990633;28;20112;-76
2022/06/07 00:59:55;;;;;;;25.95;18.25;;;11.60;99.90;;;;;;4992818;28;20621;-77
2022/06/07 01:02:21;;;;;;;26.52;18.15;;;11.50;99.90;;;;;;4975267;28;20045;-75
2022/06/07 01:04:47;;;;;;;24.98;17.98;;;11.60;99.90;;;;;;4956811;28;20040;-78
2022/06/07 01:12:42;;;;;;;27.48;18.02;;;11.60;99.90;;;;;;4990622;28;20034;-77
2022/06/07 01:15:09;;;;;;;23.13;17.08;;;11.60;99.90;;;;;;4957422;28;20569;-77
2022/06/07 01:17:35;;;;;;;23.23;17.02;;;11.60;99.90;;;;;;4972588;28;20076;-78
2022/06/07 01:20:01;;;;;;;25.52;17.98;;;11.70;99.90;;;;;;4971461;28;20034;-78
2022/06/07 01:22:27;;;;;;;26.55;17.52;;;11.60;99.90;;;;;;4958696;28;20096;-77
2022/06/07 01:24:53;;;;;;;22.38;16.35;;;11.60;99.90;;;;;;4986642;28;20447;-77
2022/06/07 01:27:20;;;;;;;25.48;17.50;;;11.60;99.90;;;;;;4972614;28;20034;-77
2022/06/07 01:29:46;;;;;;;25.83;17.95;;;11.60;99.90;;;;;;4988546;28;20081;-76
2022/06/07 01:32:12;;;;;;;24.88;16.95;;;11.60;99.90;;;;;;4988288;28;20100;-77
2022/06/07 01:34:42;;;;;;;25.08;17.27;;;11.70;99.90;;;;;;4973258;28;20042;-77
2022/06/07 01:37:10;;;;;;;23.58;16.90;;;11.70;99.90;;;;;;4958257;28;20029;-78
2022/06/07 01:42:21;;;;;;;22.80;15.43;;;11.70;99.90;;;;;;4974921;28;20061;-76
2022/06/07 01:44:48;;;;;;;25.42;16.40;;;11.60;99.90;;;;;;4988624;28;20041;-77
2022/06/07 01:47:17;;;;;;;21.10;14.77;;;11.60;99.90;;;;;;4971656;28;20495;-76
2022/06/07 01:49:43;;;;;;;19.10;14.98;;;11.60;99.90;;;;;;4987107;28;20100;-78
2022/06/07 01:52:15;;;;;;;23.13;16.20;;;11.70;99.90;;;;;;4973127;28;20060;-78
2022/06/07 01:54:41;;;;;;;21.63;14.88;;;11.60;99.90;;;;;;4983708;28;20042;-76
2022/06/07 01:57:07;;;;;;;24.50;15.45;;;11.50;99.90;;;;;;4967117;28;20120;-76
2022/06/07 01:59:34;;;;;;;21.35;15.95;;;11.60;99.90;;;;;;4972836;28;20045;-76
2022/06/07 02:02:00;;;;;;;21.25;14.32;;;11.60;99.90;;;;;;4955187;28;20053;-76
2022/06/07 02:04:26;;;;;;;22.65;14.98;;;11.60;99.90;;;;;;4969419;28;20045;-77
2022/06/07 02:06:52;;;;;;;22.02;15.45;;;11.60;99.90;;;;;;4973359;28;20562;-75
2022/06/07 02:09:19;;;;;;;20.80;14.32;;;11.60;99.90;;;;;;4969261;28;20125;-76
2022/06/07 02:11:45;;;;;;;23.77;15.10;;;11.60;99.90;;;;;;4986651;28;20388;-76
2022/06/07 02:14:12;;;;;;;22.95;15.63;;;11.60;99.90;;;;;;4970954;28;20121;-76
2022/06/07 02:16:38;;;;;;;21.17;14.77;;;11.60;99.90;;;;;;4971407;28;20048;-76
2022/06/07 02:19:05;;;;;;;21.48;14.77;;;11.60;99.90;;;;;;4969156;28;20046;-75
2022/06/07 02:21:31;;;;;;;25.10;16.35;;;11.60;99.90;;;;;;4984364;28;20070;-76
2022/06/07 02:23:57;;;;;;;25.48;16.38;;;11.60;99.90;;;;;;4955173;28;20066;-76
2022/06/07 02:26:30;;;;;;;23.98;15.35;;;11.60;99.90;;;;;;4972210;28;20581;-76
2022/06/07 02:29:03;;;;;;;23.98;16.27;;;12.40;99.90;;;;;;4969957;28;20125;-76
2022/06/07 02:31:32;;;;;;;21.15;15.02;;;11.60;99.90;;;;;;4986213;28;20038;-75
2022/06/07 02:34:01;;;;;;;24.52;15.93;;;11.60;99.90;;;;;;4983584;28;20531;-74
2022/06/07 02:36:28;;;;;;;29.35;17.92;;;11.60;99.90;;;;;;4986653;28;20049;-76
2022/06/07 02:38:54;;;;;;;23.38;16.20;;;11.60;99.90;;;;;;4970169;28;20049;-76
2022/06/07 02:41:22;;;;;;;25.10;16.80;;;11.60;99.90;;;;;;4988495;28;20125;-76
2022/06/07 02:43:48;;;;;;;24.75;16.13;;;11.60;99.90;;;;;;4972425;28;20089;-75
2022/06/07 02:46:14;;;;;;;23.25;16.17;;;11.60;99.90;;;;;;4956191;28;20703;-75
2022/06/07 02:48:40;;;;;;;24.02;15.95;;;11.60;99.90;;;;;;4985848;28;20046;-75
2022/06/07 02:51:06;;;;;;;25.83;15.88;;;11.60;99.90;;;;;;4985678;28;20037;-76
2022/06/07 02:53:32;;;;;;;23.92;15.73;;;11.60;99.90;;;;;;4984622;28;20041;-75
2022/06/07 02:55:57;;;;;;;27.13;15.60;;;11.60;99.90;;;;;;4956000;28;20052;-75
2022/06/07 02:58:24;;;;;;;24.90;16.45;;;11.60;99.90;;;;;;4972438;28;20037;-77
2022/06/07 03:00:50;;;;;;;23.30;16.58;;;11.60;99.90;;;;;;4954370;28;20048;-75
2022/06/07 03:03:16;;;;;;;24.65;16.73;;;11.70;99.90;;;;;;4983226;28;20049;-75
2022/06/07 03:05:44;;;;;;;26.65;16.48;;;11.60;99.90;;;;;;4951360;28;20050;-75
2022/06/07 03:08:10;;;;;;;29.27;18.30;;;11.60;99.90;;;;;;4968137;28;20418;-75
2022/06/07 03:10:36;;;;;;;25.30;16.80;;;11.60;99.90;;;;;;4971907;28;20057;-75
2022/06/07 03:13:01;;;;;;;29.80;18.05;;;11.60;99.90;;;;;;4984258;28;20041;-75
2022/06/07 03:15:28;;;;;;;25.20;16.50;;;11.60;99.90;;;;;;4952948;28;20544;-75
2022/06/07 03:17:54;;;;;;;25.15;16.92;;;11.70;99.90;;;;;;4987072;28;20034;-75
2022/06/07 03:20:20;;;;;;;28.08;17.35;;;11.60;99.90;;;;;;4969140;28;20040;-75
2022/06/07 03:22:46;;;;;;;24.48;17.33;;;11.60;99.90;;;;;;4988296;28;20042;-75
2022/06/07 03:25:12;;;;;;;25.38;18.02;;;11.60;99.90;;;;;;4985494;28;20044;-74
2022/06/07 03:27:39;;;;;;;26.90;18.63;;;11.60;99.90;;;;;;4987729;28;20038;-74
2022/06/07 03:30:07;;;;;;;28.70;18.38;;;11.70;99.90;;;;;;4981903;28;20499;-74
2022/06/07 03:32:34;;;;;;;25.60;17.40;;;11.60;99.90;;;;;;4969988;28;20118;-74
2022/06/07 03:35:00;;;;;;;27.00;17.70;;;11.70;99.90;;;;;;4986189;28;20038;-74
2022/06/07 03:37:26;;;;;;;27.52;18.42;;;11.70;99.90;;;;;;4954946;28;20049;-74
2022/06/07 03:39:51;;;;;;;27.67;17.90;;;11.60;99.90;;;;;;4984505;28;20121;-74
2022/06/07 03:42:20;;;;;;;24.58;16.85;;;11.60;99.90;;;;;;4971589;28;20499;-74
2022/06/07 03:44:48;;;;;;;28.40;17.58;;;11.70;99.90;;;;;;4955521;28;20052;-74
2022/06/07 03:47:21;;;;;;;23.65;17.63;;;11.70;99.90;;;;;;4955610;28;20119;-74
2022/06/07 03:49:46;;;;;;;;;;;11.70;99.90;;;;;;4954500;28;20030;-74
2022/06/07 03:52:13;;;;;;;28.98;17.73;;;11.60;99.90;;;;;;4985187;28;19972;-74
2022/06/07 03:54:39;;;;;;;27.25;17.50;;;11.70;99.90;;;;;;4984719;28;20390;-74
2022/06/07 03:57:06;;;;;;;25.02;17.30;;;11.60;99.90;;;;;;4968344;28;20042;-73
2022/06/07 03:59:32;;;;;;;25.90;17.30;;;11.70;99.90;;;;;;4953521;28;20125;-74
2022/06/07 04:01:58;;;;;;;25.38;16.98;;;11.70;99.90;;;;;;4987227;28;20542;-73
2022/06/07 04:04:24;;;;;;;29.17;18.33;;;11.70;99.90;;;;;;4971156;28;20157;-74
2022/06/07 04:09:41;;;;;;;26.38;17.60;;;11.70;99.90;;;;;;4980430;28;20043;-73
2022/06/07 04:12:09;;;;;;;26.83;18.48;;;11.70;99.90;;;;;;4985586;28;20045;-74
2022/06/07 04:14:37;;;;;;;27.75;18.95;;;11.70;99.90;;;;;;4985369;28;20033;-74
2022/06/07 04:17:03;;;;;;;25.55;17.35;;;11.70;99.90;;;;;;4970257;28;20030;-73
2022/06/07 04:19:29;;;;;;;26.02;16.20;;;11.70;99.90;;;;;;4970507;28;20053;-74
2022/06/07 04:21:55;;;;;;;22.90;16.52;;;11.70;99.90;;;;;;4986280;28;20399;-73
2022/06/07 04:24:21;;;;;;;22.08;15.30;;;11.70;99.90;;;;;;4953678;28;20045;-74
2022/06/07 04:26:47;;;;;;;24.80;14.98;;;11.70;99.90;;;;;;4987245;28;20125;-73
2022/06/07 04:29:14;;;;;;;24.05;15.45;;;11.80;99.90;;;;;;4970887;28;20046;-74
2022/06/07 04:31:39;;;;;;;20.73;14.30;;;11.80;99.90;;;;;;4970660;28;20033;-73
2022/06/07 04:34:05;;;;;;;23.10;15.13;;;11.80;99.90;;;;;;4986150;28;20345;-74
2022/06/07 04:36:31;;;;;;;21.20;14.68;;;11.80;99.90;;;;;;4970891;28;20037;-74
2022/06/07 04:38:59;;;;;;;23.15;15.68;;;11.80;99.90;;;;;;4969922;28;20045;-74
2022/06/07 04:41:25;;;;;;;22.45;14.55;;;11.80;99.90;;;;;;4970799;28;20091;-74
2022/06/07 04:43:53;;;;;;;23.90;15.10;;;11.80;99.90;;;;;;4973634;28;20049;-74
2022/06/07 04:46:20;;;;;;;26.42;15.32;;;11.80;99.90;;;;;;4988679;28;20114;-74
2022/06/07 04:48:47;;;;;;;26.35;15.10;;;11.80;99.90;;;;;;4986189;28;20053;-74
2022/06/07 04:51:27;;;;;;;21.15;13.90;;;11.90;99.90;;;;;;4989835;28;20521;-74
2022/06/07 04:53:59;;;;;;;24.75;15.15;;;11.80;99.90;;;;;;4988838;28;20042;-73
2022/06/07 04:56:31;;;;;;;24.20;14.90;;;11.80;99.90;;;;;;4994594;28;20042;-74
2022/06/07 04:58:58;;;;;;;24.67;14.15;;;11.80;99.90;;;;;;4994721;28;20052;-74
2022/06/07 05:01:31;;;;;;;20.90;14.25;;;11.90;99.90;;;;;;4974800;28;20418;-73
2022/06/07 05:03:57;;;;;;;;;;;11.80;99.90;;;;;;4978755;28;20048;-73
2022/06/07 05:06:26;;;;;;;23.00;13.65;;;11.90;99.90;;;;;;4995273;28;20008;-73
2022/06/07 05:08:56;;;;;;;22.58;14.70;;;11.90;99.90;;;;;;4970317;28;20103;-74
2022/06/07 05:11:22;;;;;;;23.75;13.75;;;11.90;99.90;;;;;;4991778;28;20033;-73
2022/06/07 05:13:51;;;;;;;20.05;13.48;;;11.90;99.90;;;;;;4971874;28;20092;-73
2022/06/07 05:16:17;;;;;;;21.20;15.00;;;11.90;99.90;;;;;;4955354;28;20050;-72
2022/06/07 05:18:42;;;;;;;23.15;14.20;;;11.90;99.90;;;;;;4987124;28;20100;-73
2022/06/07 05:21:11;;;;;;;20.17;12.40;;;11.90;99.90;;;;;;4989217;28;20529;-73
2022/06/07 05:23:43;;;;;;;22.13;14.27;;;12.00;99.90;;;;;;4970396;28;20489;-74
2022/06/07 05:26:27;;;;;;;24.23;13.77;;;11.90;99.90;;;;;;4972249;28;20112;-73
2022/06/07 05:28:57;;;;;;;22.70;14.13;;;11.90;99.90;;;;;;4985160;28;20038;-74
2022/06/07 05:31:24;;;;;;;26.13;14.18;;;12.00;99.90;;;;;;4971466;28;20049;-73
2022/06/07 05:33:50;;;;;;;26.17;13.48;;;12.00;99.90;;;;;;4978613;28;20042;-74
2022/06/07 05:36:17;;;;;;;23.50;14.63;;;12.10;99.90;;;;;;4989566;28;20074;-73
2022/06/07 05:38:45;;;;;;;25.98;13.82;;;12.00;99.90;;;;;;4972525;28;20034;-73
2022/06/07 05:41:21;;;;;;;19.70;13.18;;;12.10;99.90;;;;;;4974233;28;20065;-73
2022/06/07 05:43:47;;;;;;;19.55;12.88;;;12.10;99.90;;;;;;4970832;28;20049;-73
2022/06/07 05:46:15;;;;;;;19.05;13.00;;;12.10;99.90;;;;;;4974542;28;20568;-72
2022/06/07 05:48:41;;;;;;;21.40;13.65;;;12.10;99.90;;;;;;4973481;28;20042;-73
2022/06/07 05:51:06;;;;;;;21.15;13.73;;;12.10;99.90;;;;;;4988441;28;20514;-73
2022/06/07 05:53:32;;;;;;;20.85;13.90;;;12.10;99.90;;;;;;4954496;28;20034;-73
2022/06/07 05:56:08;;;;;;;17.10;12.25;;;12.10;99.90;;;;;;4989449;28;20038;-73
2022/06/07 05:58:34;;;;;;;22.10;13.95;;;12.10;99.90;;;;;;4985930;28;20486;-73
2022/06/07 06:00:59;;;;;;;21.05;13.60;;;12.20;99.90;;;;;;4973166;28;20056;-73
2022/06/07 06:03:25;;;;;;;18.58;13.27;;;12.20;99.90;;;;;;4987823;28;20069;-73
2022/06/07 06:05:51;;;;;;;21.33;12.68;;;12.20;99.90;;;;;;4972585;28;20636;-73
2022/06/07 06:11:06;;;;;;;20.23;13.48;;;12.20;99.90;;;;;;4981279;28;20057;-73
2022/06/07 06:13:32;;;;;;;21.58;13.35;;;12.40;99.90;;;;;;4984560;28;20430;-74
2022/06/07 06:16:07;;;;;;;21.90;13.57;;;12.10;99.90;;;;;;4970483;28;20064;-73
2022/06/07 06:18:33;;;;;;;23.15;14.98;;;12.20;99.90;;;;;;4968957;28;20049;-73
2022/06/07 06:20:59;;;;;;;20.90;13.13;;;12.20;99.90;;;;;;4984690;28;20042;-73
2022/06/07 06:23:25;;;;;;;21.55;14.93;;;12.20;99.90;;;;;;4959959;28;20046;-73
2022/06/07 06:25:51;;;;;;;19.15;13.07;;;12.10;99.90;;;;;;4963385;28;20073;-73
2022/06/07 06:28:17;;;;;;;22.70;14.18;;;12.20;99.90;;;;;;4983082;28;20053;-72
2022/06/07 06:30:44;;;;;;;18.88;13.68;;;12.20;99.90;;;;;;4974630;28;20126;-74
2022/06/07 06:33:12;;;;;;;20.00;12.63;;;12.20;99.90;;;;;;4966617;28;20117;-74
2022/06/07 06:35:39;;;;;;;19.65;13.95;;;12.20;99.90;;;;;;4949059;28;20040;-73
2022/06/07 06:38:04;;;;;;;22.27;14.48;;;12.30;99.90;;;;;;4964446;28;20112;-74
2022/06/07 06:40:30;;;;;;;23.17;14.65;;;12.30;99.90;;;;;;4957804;28;20503;-74
2022/06/07 06:42:56;;;;;;;19.35;13.35;;;12.20;99.90;;;;;;4964525;28;20510;-75
2022/06/07 06:45:22;;;;;;;19.02;12.70;;;12.20;99.90;;;;;;4964358;28;20038;-74
2022/06/07 06:47:47;;;;;;;18.77;13.18;;;12.20;99.90;;;;;;4982280;28;20042;-74
2022/06/07 06:50:13;;;;;;;20.65;13.38;;;12.20;99.90;;;;;;4964532;28;20041;-73
2022/06/07 06:52:40;;;;;;;20.10;13.38;;;12.20;99.90;;;;;;4966582;28;20515;-73
2022/06/07 06:55:06;;;;;;;18.75;12.70;;;12.20;99.90;;;;;;4963861;28;20030;-74
2022/06/07 06:57:32;;;;;;;22.30;13.27;;;12.20;99.90;;;;;;4949487;28;20050;-73
2022/06/07 06:59:58;;;;;;;21.13;13.80;;;12.20;99.90;;;;;;4984039;28;20049;-74
2022/06/07 07:02:23;;;;;;;19.33;13.27;;;12.30;99.90;;;;;;4982126;28;20038;-73
2022/06/07 07:04:49;;;;;;;23.25;13.40;;;12.20;99.90;;;;;;4975486;28;20034;-73
2022/06/07 07:07:15;;;;;;;18.17;13.07;;;12.20;99.90;;;;;;4965140;28;20041;-73
2022/06/07 07:09:41;;;;;;;22.17;14.25;;;12.20;99.90;;;;;;4965253;28;20403;-74
2022/06/07 07:12:07;;;;;;;21.27;13.50;;;12.20;99.90;;;;;;4963779;28;20113;-74
2022/06/07 07:14:33;;;;;;;18.35;13.20;;;12.20;99.90;;;;;;4964407;28;20053;-74
2022/06/07 07:16:59;;;;;;;22.73;13.57;;;12.10;99.90;;;;;;4981149;28;20450;-73
2022/06/07 07:19:24;;;;;;;21.30;14.60;;;12.10;99.90;;;;;;4966260;28;20042;-74
2022/06/07 07:21:51;;;;;;;29.20;16.00;;;12.10;99.90;;;;;;4948818;28;20050;-74
2022/06/07 07:24:23;;;;;;;29.27;15.70;;;12.00;99.90;;;;;;4981300;28;20720;-74
2022/06/07 07:26:49;;;;;;;26.70;15.10;;;12.00;99.90;;;;;;4980267;28;20565;-74
2022/06/07 07:29:18;;;;;;;23.55;14.65;;;12.00;99.90;;;;;;4949228;28;20076;-74
2022/06/07 07:31:47;;;;;;;21.02;15.07;;;12.00;99.90;;;;;;4980475;28;20045;-74
2022/06/07 07:34:15;;;;;;;23.95;15.77;;;12.00;99.90;;;;;;4980591;28;20046;-74
2022/06/07 07:36:45;;;;;;;23.98;14.82;;;12.00;99.90;;;;;;4981072;28;20034;-74
2022/06/07 07:39:10;;;;;;;21.25;14.55;;;12.00;99.90;;;;;;4964225;28;20046;-74
2022/06/07 07:41:37;;;;;;;21.88;14.70;;;12.10;99.90;;;;;;4965102;28;20740;-74
2022/06/07 07:44:06;;;;;;;21.33;14.02;;;12.10;99.90;;;;;;4981035;28;20050;-74
2022/06/07 07:46:34;;;;;;;28.05;14.75;;;12.10;99.90;;;;;;4983330;28;20081;-74
2022/06/07 07:49:00;;;;;;;23.80;15.02;;;12.10;99.90;;;;;;4977625;28;20072;-74
2022/06/07 07:51:37;;;;;;;23.15;13.75;;;12.10;99.90;;;;;;4967960;28;20034;-74
2022/06/07 07:54:05;;;;;;;23.50;14.90;;;12.10;99.90;;;;;;4999697;28;20045;-73
2022/06/07 07:56:35;;;;;;;19.08;13.88;;;12.10;99.90;;;;;;4952695;28;20053;-73
2022/06/07 07:59:06;;;;;;;20.00;11.95;;;12.10;99.90;;;;;;4967524;28;20538;-73
2022/06/07 08:01:32;;;;;;;20.55;13.55;;;12.10;99.90;;;;;;4984306;28;20387;-74
2022/06/07 08:04:00;;;;;;;20.17;13.68;;;12.10;99.90;;;;;;4982929;28;20072;-74
2022/06/07 08:06:29;;;;;;;26.38;13.52;;;12.10;99.90;;;;;;4968570;28;20048;-73
2022/06/07 08:08:57;;;;;;;22.15;13.48;;;12.10;99.90;;;;;;5000491;28;20041;-74
2022/06/07 08:11:27;;;;;;;19.50;13.75;;;12.10;99.90;;;;;;4969730;28;20041;-73
2022/06/07 08:13:53;;;;;;;25.48;14.70;;;12.10;99.90;;;;;;4981406;28;20042;-74
2022/06/07 08:16:19;;;;;;;22.42;13.85;;;12.10;99.90;;;;;;4966503;28;20088;-73
2022/06/07 08:18:46;;;;;;;22.65;13.48;;;12.10;99.90;;;;;;4984370;28;20044;-74
2022/06/07 08:21:22;;;;;;;26.20;14.35;;;12.10;99.90;;;;;;4984188;28;20034;-73
2022/06/07 08:23:53;;;;;;;20.98;15.02;;;12.00;99.90;;;;;;4967992;28;20105;-73
2022/06/07 08:26:20;;;;;;;27.10;15.18;;;12.00;99.90;;;;;;4985528;28;20136;-74
2022/06/07 08:28:45;;;;;;;29.13;16.15;;;12.00;99.90;;;;;;4988819;28;20495;-74
2022/06/07 08:31:13;;;;;;;25.23;16.05;;;12.10;99.90;;;;;;4950872;28;20029;-75
2022/06/07 08:39:09;;;;;;;26.45;14.35;;;12.20;99.90;;;;;;4982400;28;20132;-74
2022/06/07 08:41:40;;;;;;;23.83;15.18;;;12.30;99.90;;;;;;4951085;28;20073;-74
2022/06/07 08:44:16;;;;;;;21.08;14.88;;;12.30;99.90;;;;;;4998569;28;20451;-74
2022/06/07 08:46:42;;;;;;;22.05;15.38;;;12.40;99.90;;;;;;4967060;28;20121;-74
2022/06/07 08:49:12;;;;;;;22.85;13.40;;;12.40;99.90;;;;;;4965994;28;20061;-74
2022/06/07 08:52:15;;;;;;;29.55;15.85;;;12.40;99.90;;;;;;4983012;28;20487;-74
2022/06/07 08:54:42;;;;;;;24.75;15.38;;;12.30;99.90;;;;;;4953401;28;20140;-74
2022/06/07 08:57:30;;;;;;;20.75;14.90;;;12.30;99.90;;;;;;4968022;28;20104;-74
2022/06/07 09:00:16;;;;;;;25.33;14.75;;;12.20;99.90;;;;;;4970096;28;20427;-74
2022/06/07 09:06:04;;;;;;;26.58;14.70;;;12.20;99.90;;;;;;4984675;28;20062;-74
2022/06/07 09:08:44;;;;;;;24.92;14.43;;;12.20;99.90;;;;;;4983045;28;20447;-73
2022/06/07 09:14:05;;;;;;;19.33;14.15;;;12.20;99.90;;;;;;4999600;28;20050;-74
2022/06/07 09:16:43;;;;;;;20.77;13.85;;;12.10;99.90;;;;;;4964000;28;20521;-73
2022/06/07 09:19:11;;;;;;;22.13;14.43;;;12.20;99.90;;;;;;4967591;28;20050;-74
2022/06/07 09:21:42;;;;;;;20.50;12.82;;;12.20;99.90;;;;;;4981691;28;20045;-74
2022/06/07 09:24:25;;;;;;;21.98;12.93;;;12.30;99.90;;;;;;5001134;28;20445;-74
2022/06/07 09:26:51;;;;;;;20.63;13.98;;;12.30;99.90;;;;;;4984908;28;20552;-74
2022/06/07 09:29:22;;;;;;;23.38;14.40;;;12.40;99.90;;;;;;4982121;28;20050;-74
2022/06/07 09:31:50;;;;;;;20.35;12.77;;;12.40;99.90;;;;;;4983710;28;20069;-74
2022/06/07 09:34:25;;;;;;;20.83;13.48;;;12.50;99.90;;;;;;4984283;28;20104;-74
2022/06/07 09:36:59;;;;;;;16.90;13.25;;;12.50;99.90;;;;;;4979035;28;20061;-74
2022/06/07 09:39:40;;;;;;;19.42;13.10;;;12.50;99.90;;;;;;4980113;28;20073;-73
2022/06/07 09:42:24;;;;;;;24.13;12.55;;;12.50;99.90;;;;;;4979056;28;20116;-74
2022/06/07 09:44:56;;;;;;;24.33;12.32;;;12.50;99.90;;;;;;4979133;28;20518;-75
2022/06/07 09:47:25;;;;;;;18.92;12.82;;;12.50;99.90;;;;;;4979143;28;20050;-74
2022/06/07 09:50:01;;;;;;;22.05;12.82;;;12.50;99.90;;;;;;4962755;28;20121;-74
2022/06/07 09:52:31;;;;;;;23.90;11.75;;;12.60;99.90;;;;;;4977335;28;20049;-74
2022/06/07 09:55:12;;;;;;;17.73;11.80;;;12.60;99.90;;;;;;4962267;28;20455;-74
2022/06/07 09:57:40;;;;;;;16.95;10.90;;;12.60;99.90;;;;;;4960573;28;20456;-74
2022/06/07 10:00:09;;;;;;;18.48;11.77;;;12.60;99.90;;;;;;4962734;28;20053;-73
2022/06/07 10:03:11;;;;;;;17.73;11.38;;;12.70;99.90;;;;;;4977586;28;20637;-74
2022/06/07 10:05:56;;;;;;;17.90;10.98;;;12.70;99.90;;;;;;4977412;28;20415;-75
2022/06/07 10:08:28;;;;;;;17.25;10.85;;;12.80;99.90;;;;;;4983678;28;20088;-74
2022/06/07 10:11:17;;;;;;;16.23;10.67;;;12.80;99.90;;;;;;4986118;28;20037;-74
2022/06/07 10:14:15;;;;;;;16.92;10.02;;;12.80;99.90;;;;;;4984021;28;20813;-75
2022/06/07 10:16:49;;;;;;;14.70;9.93;;;12.90;99.90;;;;;;4938291;28;20503;-76
2022/06/07 10:19:21;;;;;;;13.77;10.07;;;12.90;99.90;;;;;;4985604;28;20050;-75
2022/06/07 10:22:12;;;;;;;14.15;10.38;;;13.00;99.90;;;;;;4985471;28;20523;-74
2022/06/07 10:24:52;;;;;;;17.20;11.70;;;13.00;99.90;;;;;;4968772;28;20061;-75
2022/06/07 10:27:22;;;;;;;18.75;10.52;;;13.00;99.90;;;;;;4985063;28;20041;-76
2022/06/07 10:30:06;;;;;;;19.25;11.52;;;13.00;99.90;;;;;;4986122;28;20050;-75
2022/06/07 10:32:34;;;;;;;13.38;10.13;;;13.00;99.90;;;;;;4984659;28;20054;-77
2022/06/07 10:35:15;;;;;;;16.02;11.18;;;13.00;99.90;;;;;;4966859;28;20065;-75
2022/06/07 10:38:11;;;;;;;17.10;9.40;;;13.00;99.90;;;;;;4998763;28;20046;-75
2022/06/07 10:40:58;;;;;;;12.13;8.60;;;13.10;99.90;;;;;;4981379;28;20038;-75
2022/06/07 10:43:32;;;;;;;18.65;8.70;;;13.10;99.90;;;;;;4995886;28;20064;-76
2022/06/07 10:46:00;;;;;;;14.13;8.30;;;13.10;99.90;;;;;;4982949;28;20047;-76
2022/06/07 10:48:33;;;;;;;14.27;7.88;;;13.20;99.90;;;;;;4988644;28;20057;-75
2022/06/07 10:52:20;;;;;;;11.65;8.18;;;13.20;99.90;;;;;;4973904;28;20046;-76
2022/06/07 10:54:01;;;;;;;12.40;7.32;;;13.40;99.90;;;;;;4989973;28;20137;-75
2022/06/07 10:56:32;;;;;;;10.80;6.88;;;13.50;99.90;;;;;;4990221;28;20042;-75
2022/06/07 10:59:01;;;;;;;15.55;7.93;;;13.60;99.90;;;;;;4989738;28;20403;-75
2022/06/07 11:01:35;;;;;;;20.65;7.55;;;13.60;99.90;;;;;;4989407;28;20488;-76
2022/06/07 11:10:12;;;;;;;11.55;7.00;;;13.60;99.90;;;;;;5001565;28;20047;-75
2022/06/07 11:12:50;;;;;;;13.95;7.25;;;13.60;99.90;;;;;;4989679;28;20046;-75
2022/06/07 11:15:21;;;;;;;15.65;7.35;;;13.60;99.90;;;;;;4989839;28;20038;-76
2022/06/07 11:18:02;;;;;;;14.07;7.13;;;13.70;99.90;;;;;;4969251;28;20084;-75
2022/06/07 11:20:34;;;;;;;15.57;7.07;;;13.60;99.90;;;;;;4981099;28;20030;-76
2022/06/07 11:23:19;;;;;;;14.17;6.63;;;13.60;99.90;;;;;;4956683;28;20034;-74
2022/06/07 11:26:05;;;;;;;18.05;7.25;;;13.60;99.90;;;;;;4973487;28;20104;-75
2022/06/07 11:28:39;;;;;;;11.20;6.72;;;13.60;99.90;;;;;;4987823;28;20054;-75
2022/06/07 11:31:22;;;;;;;15.52;7.03;;;13.60;99.90;;;;;;4970349;28;20035;-74
2022/06/07 11:33:51;;;;;;;11.07;6.85;;;13.70;99.90;;;;;;4986252;28;20121;-75
2022/06/07 11:36:20;;;;;;;9.93;7.15;;;13.70;99.90;;;;;;4973490;28;20038;-74
2022/06/07 11:38:55;;;;;;;10.32;6.97;;;13.70;99.90;;;;;;4970012;28;20070;-74
2022/06/07 11:41:38;;;;;;;14.35;6.82;;;13.70;99.90;;;;;;4981156;28;20100;-74
2022/06/07 11:44:07;;;;;;;15.32;7.93;;;13.70;99.90;;;;;;4988533;28;20057;-75
2022/06/07 11:46:33;;;;;;;15.05;7.20;;;13.70;99.90;;;;;;4998937;28;20077;-75
2022/06/07 11:49:18;;;;;;;18.23;7.18;;;13.80;99.90;;;;;;4992200;28;20108;-74
2022/06/07 11:52:02;;;;;;;11.45;7.43;;;13.80;99.90;;;;;;4988826;28;20277;-75
2022/06/07 11:54:45;;;;;;;15.13;7.78;;;13.90;99.90;;;;;;4992170;28;20126;-75
2022/06/07 11:57:36;;;;;;;13.88;6.70;;;14.00;99.90;;;;;;4974618;28;20496;-75
2022/06/07 12:00:22;;;;;;;12.80;7.95;;;14.10;99.90;;;;;;4962664;28;20038;-75
2022/06/07 12:02:56;;;;;;;11.38;6.93;;;14.10;99.90;;;;;;4978718;28;20038;-75
2022/06/07 12:05:28;;;;;;;14.00;7.22;;;14.10;99.90;;;;;;4987255;28;20042;-75
2022/06/07 12:08:09;;;;;;;12.63;6.83;;;14.10;99.90;;;;;;4990300;28;20049;-74
2022/06/07 12:10:38;;;;;;;11.68;7.63;;;13.90;99.90;;;;;;4968146;28;20259;-75
2022/06/07 12:13:07;;;;;;;13.45;7.32;;;14.30;99.90;;;;;;4992456;28;20364;-74
2022/06/07 12:15:45;;;;;;;12.05;7.28;;;14.40;99.90;;;;;;4992215;28;20038;-75
2022/06/07 12:18:17;;;;;;;11.18;6.57;;;14.50;99.90;;;;;;5008585;28;20038;-74
2022/06/07 12:21:07;;;;;;;13.25;7.68;;;14.50;99.90;;;;;;4977151;28;20038;-74
2022/06/07 12:23:36;;;;;;;13.40;6.60;;;14.50;99.90;;;;;;4992604;28;20048;-74
2022/06/07 12:26:27;;;;;;;14.80;7.50;;;14.50;99.90;;;;;;4970659;28;20042;-74
2022/06/07 12:29:00;;;;;;;14.73;8.00;;;14.70;99.90;;;;;;4980068;28;20054;-74
2022/06/07 12:31:44;;;;;;;11.05;7.13;;;14.80;99.90;;;;;;4957034;28;20043;-75
2022/06/07 12:34:34;;;;;;;11.20;6.80;;;14.90;99.90;;;;;;5008484;28;20495;-73
2022/06/07 12:37:00;;;;;;;13.18;7.30;;;14.90;99.90;;;;;;4975686;28;20038;-74
2022/06/07 12:39:28;;;;;;;11.70;6.65;;;15.00;99.90;;;;;;4992146;28;20064;-75
2022/06/07 12:42:18;;;;;;;15.20;7.18;;;15.10;99.90;;;;;;4992358;28;20054;-76
2022/06/07 12:44:57;;;;;;;12.18;6.65;;;15.10;99.90;;;;;;4974121;28;20046;-75
2022/06/07 12:47:34;;;;;;;11.63;6.60;;;15.20;99.90;;;;;;4990387;28;20050;-74
2022/06/07 12:50:02;;;;;;;9.82;6.97;;;15.40;99.90;;;;;;4987134;28;20033;-74
2022/06/07 12:52:31;;;;;;;10.05;6.15;;;15.50;99.90;;;;;;4996157;28;20049;-74
2022/06/07 12:55:07;;;;;;;10.70;6.28;;;15.70;99.90;;;;;;5002994;28;20088;-75
2022/06/07 12:57:46;;;;;;;12.85;5.80;;;15.80;99.90;;;;;;4964520;28;20045;-74
2022/06/07 13:00:17;;;;;;;14.45;7.35;;;15.80;99.90;;;;;;4992260;28;20038;-75
2022/06/07 13:02:52;;;;;;;12.35;6.90;;;15.80;99.90;;;;;;4972568;28;20041;-75
2022/06/07 13:05:36;;;;;;;9.57;5.90;;;15.80;99.90;;;;;;4988681;28;20503;-74
2022/06/07 13:08:12;;;;;;;11.15;5.95;;;15.80;99.90;;;;;;4979211;28;20129;-74
2022/06/07 13:10:38;;;;;;;11.60;6.97;;;16.00;99.90;;;;;;4987837;28;20045;-75
2022/06/07 13:13:07;;;;;;;12.85;5.90;;;16.10;99.90;;;;;;4978941;28;20120;-74
2022/06/07 13:15:35;;;;;;;11.15;5.82;;;16.20;99.90;;;;;;4990592;28;20119;-74
2022/06/07 13:18:22;;;;;;;9.75;5.85;;;16.30;99.90;;;;;;4992604;28;20038;-74